Time;durP1;ratioP1;P1;durP2;ratioP2;P2;SDS_P1;SDS_P2;PMS_P1;PMS_P2;Temp;Humidity;BMP_temperature;BMP_pressure;BME280_temperature;BME280_humidity;BME280_pressure;Samples;Min_cycle;Max_cycle;Signal;HPM_P1;HPM_P2
2022/01/30 00:01:32;;;;;;;;;4.00;4.00;;;;;10.17;77.81;102418.69;5076800;28;46482;-53
2022/01/30 00:03:58;;;;;;;;;4.00;4.00;;;;;10.17;77.97;102430.06;5077096;28;45437;-54
2022/01/30 00:06:23;;;;;;;;;5.33;5.33;;;;;10.18;77.79;102429.22;5077302;28;45453;-48
2022/01/30 00:08:49;;;;;;;;;5.00;4.67;;;;;10.22;77.33;102416.91;5077139;27;45433;-53
2022/01/30 00:11:20;;;;;;;;;4.67;4.67;;;;;10.23;77.69;102415.16;5076737;28;46205;-51
2022/01/30 00:13:45;;;;;;;;;4.00;4.00;;;;;10.14;77.88;102392.41;5076863;28;45474;-50
2022/01/30 00:16:11;;;;;;;;;5.00;5.00;;;;;10.20;77.32;102407.28;5077039;28;45481;-53
2022/01/30 00:24:03;;;;;;;;;4.00;4.00;;;;;10.28;77.04;102414.28;5076818;27;45369;-51
2022/01/30 00:26:32;;;;;;;;;5.00;4.00;;;;;10.27;77.61;102415.19;5076954;27;45465;-51
2022/01/30 00:28:58;;;;;;;;;7.00;7.00;;;;;10.27;77.61;102409.91;5076474;28;45509;-50
2022/01/30 00:31:26;;;;;;;;;5.00;5.00;;;;;10.22;77.80;102421.31;5076272;28;45884;-49
2022/01/30 00:33:52;;;;;;;;;7.00;7.00;;;;;10.15;77.44;102402.03;5075208;27;45409;-49
2022/01/30 00:36:17;;;;;;;;;5.67;5.67;;;;;10.21;78.16;102411.66;5076530;28;45464;-52
2022/01/30 00:38:43;;;;;;;;;5.00;5.00;;;;;10.18;77.88;102402.91;5076510;27;45543;-51
2022/01/30 00:41:08;;;;;;;;;8.00;7.00;;;;;10.14;77.93;102392.41;5076446;28;45522;-52
2022/01/30 00:43:34;;;;;;;;;7.00;7.00;;;;;10.17;78.07;102397.66;5076561;27;45644;-51
2022/01/30 00:46:00;;;;;;;;;6.00;6.00;;;;;10.17;78.19;102401.16;5076605;27;45378;-52
2022/01/30 00:48:25;;;;;;;;;7.67;4.00;;;;;10.12;78.58;102392.41;5076335;28;45639;-53
2022/01/30 00:50:51;;;;;;;;;5.00;4.00;;;;;10.16;78.32;102398.56;5076152;28;45967;-51
2022/01/30 00:53:16;;;;;;;;;5.33;4.00;;;;;10.12;78.17;102389.78;5076320;28;45429;-49
2022/01/30 00:55:42;;;;;;;;;3.33;2.33;;;;;10.11;77.99;102390.66;5076329;28;45458;-49
2022/01/30 00:58:07;;;;;;;;;5.33;4.33;;;;;10.02;78.11;102380.22;5076256;27;45510;-51
2022/01/30 01:00:34;;;;;;;;;3.00;3.00;;;;;10.04;78.23;102381.06;5076182;27;46390;-53
2022/01/30 01:03:00;;;;;;;;;7.33;5.00;;;;;10.04;77.98;102375.81;5076243;28;45498;-50
2022/01/30 01:05:27;;;;;;;;;4.00;2.67;;;;;9.95;78.67;102368.84;5076108;28;45429;-53
2022/01/30 01:07:54;;;;;;;;;4.00;4.00;;;;;9.96;77.96;102372.34;5076178;28;45614;-53
2022/01/30 01:23:31;;;;;;;;;6.33;6.00;;;;;9.87;78.11;102365.38;5075790;27;45429;-48
2022/01/30 01:25:58;;;;;;;;;5.33;5.33;;;;;9.91;78.13;102360.97;5076047;28;45385;-47
2022/01/30 01:28:24;;;;;;;;;6.67;6.67;;;;;9.89;78.13;102353.09;5075905;28;45579;-48
2022/01/30 01:30:50;;;;;;;;;6.33;5.67;;;;;9.85;77.71;102353.97;5075658;28;45526;-48
2022/01/30 01:33:16;;;;;;;;;5.67;5.67;;;;;9.91;77.66;102364.50;5075589;28;45490;-54
2022/01/30 01:35:41;;;;;;;;;8.00;6.00;;;;;9.89;78.01;102362.75;5075380;27;45481;-51
2022/01/30 01:38:12;;;;;;;;;5.67;5.67;;;;;9.87;78.37;102367.13;5075694;27;45462;-53
2022/01/30 01:40:50;;;;;;;;;8.33;8.33;;;;;9.86;78.19;102363.63;5074548;28;45374;-53
2022/01/30 01:43:17;;;;;;;;;7.00;7.00;;;;;9.88;78.67;102358.34;5074186;28;45387;-52
2022/01/30 01:45:43;;;;;;;;;8.00;7.00;;;;;9.86;78.12;102358.38;5075780;28;45491;-51
2022/01/30 01:48:13;;;;;;;;;7.33;7.33;;;;;9.86;78.26;102361.00;5075633;28;45432;-48
2022/01/30 01:50:43;;;;;;;;;7.00;7.00;;;;;9.87;78.43;102357.47;5075162;28;45683;-51
2022/01/30 01:53:12;;;;;;;;;4.33;2.67;;;;;9.83;78.51;102352.22;5075442;27;45498;-51
2022/01/30 01:55:39;;;;;;;;;8.00;7.33;;;;;9.91;78.25;102360.97;5075586;28;45392;-49
2022/01/30 01:58:05;;;;;;;;;8.00;8.00;;;;;9.88;77.72;102360.97;5075282;27;45617;-56
2022/01/30 02:00:31;;;;;;;;;9.00;8.67;;;;;9.85;77.83;102355.75;5075355;28;46418;-47
2022/01/30 02:02:56;;;;;;;;;6.67;6.67;;;;;9.90;78.02;102365.34;5075355;27;45503;-50
2022/01/30 02:05:23;;;;;;;;;8.33;7.67;;;;;9.89;77.94;102354.88;5075270;28;45540;-56
2022/01/30 02:10:35;;;;;;;;;10.67;8.00;;;;;9.92;78.00;102371.47;5075076;28;46082;-52
2022/01/30 02:13:18;;;;;;;;;8.67;8.67;;;;;9.97;77.95;102366.22;5074315;28;45438;-52
2022/01/30 02:24:06;;;;;;;;;10.33;10.33;;;;;10.04;77.21;102344.25;5075138;28;45454;-54
2022/01/30 02:26:45;;;;;;;;;8.00;7.33;;;;;10.01;77.40;102346.03;5074089;27;45462;-51
2022/01/30 02:29:11;;;;;;;;;8.00;8.00;;;;;10.02;77.15;102346.03;5074876;28;45413;-53
2022/01/30 02:31:39;;;;;;;;;9.33;9.33;;;;;10.03;77.20;102353.03;5074846;27;46140;-54
2022/01/30 02:34:04;;;;;;;;;9.33;8.33;;;;;10.06;76.93;102344.25;5073639;28;45603;-52
2022/01/30 02:36:30;;;;;;;;;10.00;9.00;;;;;10.08;76.94;102346.00;5074886;28;45430;-51
2022/01/30 02:38:58;;;;;;;;;8.67;8.67;;;;;10.05;77.27;102342.53;5075213;28;45717;-53
2022/01/30 02:41:24;;;;;;;;;9.67;8.67;;;;;10.01;77.05;102340.78;5074823;28;46066;-52
2022/01/30 02:44:05;;;;;;;;;9.67;8.33;;;;;10.04;77.39;102348.66;5074909;27;45486;-54
2022/01/30 02:46:34;;;;;;;;;10.33;10.33;;;;;10.03;77.18;102352.16;5074916;28;45457;-52
2022/01/30 02:49:12;;;;;;;;;9.67;9.67;;;;;10.06;77.31;102353.00;5075556;28;45537;-52
2022/01/30 02:51:46;;;;;;;;;10.00;9.00;;;;;10.07;77.23;102341.59;5078217;28;45479;-51
2022/01/30 02:54:12;;;;;;;;;7.00;7.00;;;;;10.07;76.72;102346.00;5078349;27;45421;-50
2022/01/30 02:56:39;;;;;;;;;8.00;7.67;;;;;10.02;76.97;102351.31;5078462;28;45592;-51
2022/01/30 02:59:05;;;;;;;;;5.67;5.33;;;;;10.02;76.54;102345.13;5078273;27;45603;-51
2022/01/30 03:01:30;;;;;;;;;8.00;8.00;;;;;10.05;76.91;102347.78;5078112;27;46466;-53
2022/01/30 03:03:56;;;;;;;;;10.00;9.00;;;;;10.00;76.70;102344.31;5078278;27;45545;-49
2022/01/30 03:06:21;;;;;;;;;9.00;9.00;;;;;9.98;76.44;102341.66;5078224;28;45434;-51
2022/01/30 03:08:46;;;;;;;;;9.33;7.67;;;;;10.03;76.66;102349.53;5078104;27;45478;-53
2022/01/30 03:11:12;;;;;;;;;10.00;10.00;;;;;10.03;76.47;102349.53;5077511;28;53937;-51
2022/01/30 03:13:37;;;;;;;;;8.00;8.00;;;;;10.06;76.68;102352.16;5076803;27;45395;-55
2022/01/30 03:16:03;;;;;;;;;9.33;9.33;;;;;10.08;75.98;102348.63;5078006;28;45420;-50
2022/01/30 03:18:31;;;;;;;;;7.33;7.00;;;;;10.14;76.27;102345.09;5078061;27;45401;-52
2022/01/30 03:20:56;;;;;;;;;9.00;9.00;;;;;10.14;76.29;102359.09;5077782;28;46089;-52
2022/01/30 03:23:21;;;;;;;;;9.33;9.33;;;;;10.04;76.43;102344.25;5077649;28;45450;-53
2022/01/30 03:25:53;;;;;;;;;10.33;10.33;;;;;10.13;76.24;102348.63;5078041;27;45316;-50
2022/01/30 03:28:18;;;;;;;;;6.00;4.00;;;;;10.13;75.95;102354.75;5077691;28;45472;-55
2022/01/30 03:30:45;;;;;;;;;10.33;9.00;;;;;10.10;76.26;102344.25;5077587;28;45471;-52
2022/01/30 03:33:10;;;;;;;;;14.00;11.67;;;;;10.14;76.15;102356.47;5077825;27;45437;-56
2022/01/30 03:35:35;;;;;;;;;9.00;9.00;;;;;10.13;76.00;102361.75;5077577;27;45382;-52
2022/01/30 03:38:01;;;;;;;;;9.00;8.33;;;;;10.18;75.90;102362.59;5076390;27;45421;-52
2022/01/30 03:40:26;;;;;;;;;11.67;7.67;;;;;10.18;76.25;102362.59;5058871;28;45505;-54
2022/01/30 03:42:51;;;;;;;;;12.00;9.00;;;;;10.15;75.58;102359.97;5037189;28;45375;-53
2022/01/30 03:45:17;;;;;;;;;12.00;10.00;;;;;10.14;75.61;102347.72;5037202;28;45383;-52
2022/01/30 03:47:42;;;;;;;;;8.67;8.00;;;;;10.14;75.24;102351.22;5037020;28;45633;-53
2022/01/30 03:50:08;;;;;;;;;9.00;9.00;;;;;10.16;75.06;102356.47;5037025;28;45412;-51
2022/01/30 03:52:34;;;;;;;;;9.00;8.00;;;;;10.17;75.57;102353.81;5036904;28;45379;-48
2022/01/30 03:54:59;;;;;;;;;10.00;8.33;;;;;10.20;75.08;102341.56;5037196;28;45426;-51
2022/01/30 03:57:24;;;;;;;;;11.33;10.00;;;;;10.18;74.16;102347.69;5035805;28;45565;-48
2022/01/30 03:59:50;;;;;;;;;12.67;10.33;;;;;10.15;73.87;102326.69;5036499;28;46175;-54
2022/01/30 04:02:15;;;;;;;;;11.67;11.33;;;;;10.27;74.33;102352.06;5036880;28;45494;-54
2022/01/30 04:04:41;;;;;;;;;13.00;10.00;;;;;10.30;74.14;102354.66;5037157;28;45403;-51
2022/01/30 04:07:06;;;;;;;;;12.00;10.33;;;;;10.30;73.58;102352.03;5037009;28;45358;-53
2022/01/30 04:09:32;;;;;;;;;18.00;11.67;;;;;10.35;73.32;102358.16;5036631;28;46460;-52
2022/01/30 04:11:58;;;;;;;;;12.67;12.67;;;;;10.36;73.51;102359.88;5036676;28;45438;-54
2022/01/30 04:14:23;;;;;;;;;8.00;8.00;;;;;10.39;73.48;102361.63;5036803;28;45438;-56
2022/01/30 04:16:49;;;;;;;;;8.67;8.67;;;;;10.41;71.74;102366.88;5036869;28;45547;-51
2022/01/30 04:19:14;;;;;;;;;10.33;9.00;;;;;10.37;71.04;102368.66;5036557;28;45440;-53
2022/01/30 04:21:40;;;;;;;;;4.00;4.00;;;;;10.33;70.02;102357.28;5036555;28;45359;-52
2022/01/30 04:24:06;;;;;;;;;7.00;5.00;;;;;10.33;68.08;102365.16;5036627;28;45398;-51
2022/01/30 04:26:32;;;;;;;;;6.33;6.33;;;;;10.31;67.05;102363.44;5036470;28;45347;-49
2022/01/30 04:28:58;;;;;;;;;5.67;4.00;;;;;10.34;67.88;102366.94;5036205;28;45449;-53
2022/01/30 04:31:23;;;;;;;;;7.00;5.00;;;;;10.34;67.13;102369.56;5036249;28;45427;-49
2022/01/30 04:33:49;;;;;;;;;4.00;4.00;;;;;10.27;65.61;102353.78;5036537;28;45408;-52
2022/01/30 04:36:20;;;;;;;;;2.00;2.00;;;;;10.33;65.66;102373.06;5051862;28;45616;-52
2022/01/30 04:39:02;;;;;;;;;4.00;2.67;;;;;10.27;61.92;102374.81;5036354;28;45384;-49
2022/01/30 04:52:50;;;;;;;;;4.33;3.67;;;;;10.05;61.18;102366.19;5036129;28;45410;-54
2022/01/30 05:08:05;;;;;;;;;3.00;2.00;;;;;10.06;60.17;102389.81;5035881;28;45310;-49
2022/01/30 05:10:31;;;;;;;;;2.67;2.00;;;;;10.03;59.93;102381.94;5035086;28;45750;-52
2022/01/30 05:12:58;;;;;;;;;2.00;2.00;;;;;10.04;59.93;102381.06;5033941;28;45410;-49
2022/01/30 05:15:27;;;;;;;;;3.00;2.67;;;;;9.95;59.55;102383.75;5036041;28;45530;-48
2022/01/30 05:17:53;;;;;;;;;4.00;2.67;;;;;10.01;60.21;102388.09;5034428;28;45610;-49
2022/01/30 05:20:18;;;;;;;;;2.33;2.00;;;;;10.02;59.22;102395.09;5035440;28;46442;-49
2022/01/30 05:22:44;;;;;;;;;2.00;1.67;;;;;10.03;59.80;102395.09;5035627;28;45449;-50
2022/01/30 05:25:09;;;;;;;;;4.67;2.67;;;;;10.00;59.21;102387.22;5035698;28;45368;-50
2022/01/30 05:27:35;;;;;;;;;5.33;3.67;;;;;9.99;59.45;102395.97;5035491;28;45449;-51
2022/01/30 05:30:03;;;;;;;;;7.00;3.00;;;;;9.99;59.69;102397.72;5035479;28;46523;-50
2022/01/30 05:32:28;;;;;;;;;4.00;2.00;;;;;9.99;59.98;102398.59;5035213;28;45546;-49
2022/01/30 05:34:55;;;;;;;;;2.00;2.00;;;;;10.02;60.56;102406.50;5035382;28;45492;-54
2022/01/30 05:37:22;;;;;;;;;2.67;2.00;;;;;10.05;60.73;102413.50;5035546;28;45543;-50
2022/01/30 05:39:48;;;;;;;;;3.33;3.33;;;;;10.06;60.44;102409.97;5035104;28;45399;-53
2022/01/30 05:42:13;;;;;;;;;4.33;4.00;;;;;10.03;60.34;102412.63;5035345;28;45470;-51
2022/01/30 05:45:29;;;;;;;;;3.33;3.33;;;;;10.02;60.41;102405.59;5035344;28;45390;-49
2022/01/30 05:47:37;;;;;;;;;4.00;4.00;;;;;9.99;60.70;102406.47;5032440;28;45491;-51
2022/01/30 05:50:03;;;;;;;;;3.00;2.33;;;;;9.96;61.04;102409.13;5035741;28;45415;-54
2022/01/30 05:52:29;;;;;;;;;5.00;3.00;;;;;10.00;59.89;102410.88;5035307;28;45430;-50
2022/01/30 05:54:54;;;;;;;;;3.67;3.67;;;;;9.97;60.13;102405.63;5035222;28;45507;-50
2022/01/30 05:57:19;;;;;;;;;7.67;4.00;;;;;10.01;60.13;102411.75;5035103;28;48654;-54
2022/01/30 05:59:45;;;;;;;;;2.67;2.33;;;;;9.98;60.65;102409.13;5035111;28;45492;-52
2022/01/30 06:02:10;;;;;;;;;3.33;3.00;;;;;10.02;60.31;102410.84;5035078;28;45429;-51
2022/01/30 06:04:35;;;;;;;;;4.00;3.33;;;;;9.98;59.36;102420.53;5035126;28;45387;-51
2022/01/30 06:07:01;;;;;;;;;2.33;2.33;;;;;9.95;60.20;102417.91;5035174;28;45509;-53
2022/01/30 06:09:27;;;;;;;;;2.00;2.00;;;;;9.95;59.83;102425.78;5034981;28;46336;-53
2022/01/30 06:11:52;;;;;;;;;3.67;3.67;;;;;9.95;59.84;102424.03;5034826;28;45376;-51
2022/01/30 06:14:19;;;;;;;;;4.33;3.00;;;;;9.94;59.86;102417.03;5035078;28;45459;-51
2022/01/30 06:16:44;;;;;;;;;4.00;3.00;;;;;9.86;59.51;102424.06;5035115;28;45597;-50
2022/01/30 06:19:10;;;;;;;;;3.00;2.67;;;;;9.86;60.51;102426.69;5034951;28;46172;-50
2022/01/30 06:21:35;;;;;;;;;2.00;1.67;;;;;9.87;59.86;102432.81;5034745;28;45641;-51
2022/01/30 06:24:01;;;;;;;;;7.00;4.33;;;;;9.91;60.23;102437.19;5038291;28;45462;-51
2022/01/30 06:26:27;;;;;;;;;3.33;2.67;;;;;9.89;60.13;102442.47;5038313;28;45496;-53
2022/01/30 06:28:53;;;;;;;;;6.33;2.67;;;;;9.91;60.14;102448.59;5037880;28;45962;-49
2022/01/30 06:31:18;;;;;;;;;1.67;1.67;;;;;9.77;59.70;102424.09;5038200;28;45378;-51
2022/01/30 06:33:43;;;;;;;;;6.00;6.00;;;;;9.88;60.52;102440.69;5053890;28;45439;-55
2022/01/30 06:36:09;;;;;;;;;2.00;1.00;;;;;9.90;60.09;102441.56;5038193;28;45593;-51
2022/01/30 06:38:34;;;;;;;;;4.00;3.00;;;;;9.84;59.58;102441.59;5038211;28;46478;-52
2022/01/30 06:41:00;;;;;;;;;3.67;2.67;;;;;9.82;59.74;102434.59;5038264;28;45446;-52
2022/01/30 06:43:25;;;;;;;;;3.00;3.00;;;;;9.77;58.92;102434.59;5037931;28;45398;-49
2022/01/30 06:45:51;;;;;;;;;4.00;2.00;;;;;9.75;59.65;102441.59;5053680;28;45571;-51
2022/01/30 06:48:19;;;;;;;;;3.67;3.67;;;;;9.74;59.63;102439.84;5037996;28;46362;-52
2022/01/30 06:50:45;;;;;;;;;3.67;2.00;;;;;9.79;59.47;102451.25;5038059;28;45654;-51
2022/01/30 06:53:11;;;;;;;;;4.00;4.00;;;;;9.70;57.34;102440.75;5038167;28;45437;-52
2022/01/30 06:55:42;;;;;;;;;5.67;4.00;;;;;9.70;59.05;102446.00;5038143;28;45426;-50
2022/01/30 06:58:16;;;;;;;;;7.00;3.67;;;;;9.70;59.02;102446.88;5037841;28;45613;-48
2022/01/30 07:00:42;;;;;;;;;3.33;3.00;;;;;9.68;57.84;102455.66;5053255;28;45482;-52
2022/01/30 07:03:07;;;;;;;;;2.33;2.33;;;;;9.57;58.26;102439.03;5037765;28;45414;-50
2022/01/30 07:05:33;;;;;;;;;4.00;3.00;;;;;9.63;57.94;102444.25;5036465;28;45621;-50
2022/01/30 07:07:59;;;;;;;;;7.00;6.00;;;;;9.65;58.17;102442.53;5037740;28;46573;-52
2022/01/30 07:10:24;;;;;;;;;3.00;2.00;;;;;9.67;58.16;102451.25;5037537;28;45367;-49
2022/01/30 07:12:50;;;;;;;;;5.33;2.33;;;;;9.68;58.65;102443.38;5037722;28;45383;-51
2022/01/30 07:15:15;;;;;;;;;3.67;2.00;;;;;9.68;58.54;102447.75;5037766;28;45373;-52
2022/01/30 07:17:41;;;;;;;;;8.00;3.00;;;;;9.63;58.02;102449.53;5037360;28;46544;-49
2022/01/30 07:20:07;;;;;;;;;3.67;3.00;;;;;9.56;57.51;102448.63;5037559;28;45466;-50
2022/01/30 07:22:33;;;;;;;;;3.00;3.00;;;;;9.51;57.22;102460.94;5037645;28;45489;-51
2022/01/30 07:24:58;;;;;;;;;1.00;1.00;;;;;9.53;57.54;102461.78;5037329;28;45573;-49
2022/01/30 07:27:24;;;;;;;;;3.00;3.00;;;;;9.48;57.17;102471.41;5037347;28;46095;-52
2022/01/30 07:29:50;;;;;;;;;5.33;2.00;;;;;9.46;57.77;102471.44;5037450;28;45499;-53
2022/01/30 07:32:15;;;;;;;;;3.33;2.67;;;;;9.43;57.90;102470.53;5037259;28;45443;-49
2022/01/30 07:34:41;;;;;;;;;3.33;2.00;;;;;9.51;57.98;102487.19;5036508;28;45614;-49
2022/01/30 07:37:08;;;;;;;;;4.67;3.33;;;;;9.46;57.94;102475.81;5037069;28;45438;-50
2022/01/30 07:39:36;;;;;;;;;2.67;2.33;;;;;9.52;58.25;102483.69;5037220;28;45377;-49
2022/01/30 07:42:02;;;;;;;;;3.00;2.00;;;;;9.54;58.48;102496.78;5037383;28;45434;-48
2022/01/30 07:44:27;;;;;;;;;4.00;3.33;;;;;9.57;58.38;102491.56;5037142;28;45457;-51
2022/01/30 07:46:52;;;;;;;;;4.33;2.33;;;;;9.53;58.40;102495.94;5037021;28;45471;-52
2022/01/30 07:49:18;;;;;;;;;5.67;4.00;;;;;9.45;58.48;102495.94;5037159;28;45436;-52
2022/01/30 07:51:43;;;;;;;;;3.00;3.00;;;;;9.42;58.59;102495.94;5037277;28;45672;-49
2022/01/30 07:54:09;;;;;;;;;5.33;3.67;;;;;9.37;58.55;102488.94;5037016;28;45676;-54
2022/01/30 07:56:34;;;;;;;;;4.00;2.67;;;;;9.38;58.16;102501.22;5052306;28;45485;-49
2022/01/30 07:58:59;;;;;;;;;5.67;4.00;;;;;9.30;59.23;102511.69;5036869;28;45449;-51
2022/01/30 08:01:25;;;;;;;;;2.67;1.00;;;;;9.37;58.79;102508.19;5036982;28;45383;-49
2022/01/30 08:03:50;;;;;;;;;4.33;4.33;;;;;9.35;58.47;102512.59;5036996;28;45417;-51
2022/01/30 08:06:15;;;;;;;;;4.33;2.67;;;;;9.37;59.05;102502.06;5036426;28;46482;-51
2022/01/30 08:08:41;;;;;;;;;4.67;3.33;;;;;9.43;59.71;102508.22;5036616;28;45415;-50
2022/01/30 08:11:10;;;;;;;;;7.00;5.33;;;;;9.50;59.20;102517.81;5052285;28;45405;-49
2022/01/30 08:13:35;;;;;;;;;7.00;4.67;;;;;9.51;58.73;102516.97;5036438;28;45692;-49
2022/01/30 08:16:00;;;;;;;;;8.67;7.33;;;;;9.48;58.47;102516.06;5051656;28;51994;-51
2022/01/30 08:18:26;;;;;;;;;10.67;6.00;;;;;9.43;58.90;102517.81;5036726;28;45426;-50
2022/01/30 08:20:51;;;;;;;;;6.00;4.00;;;;;9.47;59.32;102523.06;5036590;28;45430;-51
2022/01/30 08:23:19;;;;;;;;;6.67;5.33;;;;;9.49;59.40;102529.22;5036697;28;46000;-55
2022/01/30 08:25:44;;;;;;;;;4.33;4.00;;;;;9.46;59.02;102520.47;5036225;28;45601;-47
2022/01/30 08:28:10;;;;;;;;;6.00;4.00;;;;;9.49;59.44;102521.31;5036108;28;45492;-50
2022/01/30 08:30:35;;;;;;;;;3.67;2.67;;;;;9.47;59.55;102515.19;5036827;28;45427;-49
2022/01/30 08:33:02;;;;;;;;;4.33;4.33;;;;;9.51;59.39;102519.59;5036434;28;45375;-54
2022/01/30 08:35:28;;;;;;;;;4.00;4.00;;;;;9.56;59.22;102521.31;5036211;28;46249;-48
2022/01/30 08:37:53;;;;;;;;;7.00;7.00;;;;;9.57;59.11;102513.44;5036189;28;45403;-51
2022/01/30 08:40:21;;;;;;;;;3.00;2.00;;;;;9.60;59.01;102516.06;5036444;28;45316;-51
2022/01/30 08:42:48;;;;;;;;;1.00;1.00;;;;;9.60;58.92;102513.44;5036364;28;45541;-53
2022/01/30 08:45:15;;;;;;;;;2.00;1.00;;;;;9.61;58.04;102520.44;5035593;28;46394;-50
2022/01/30 08:47:42;;;;;;;;;8.67;5.00;;;;;9.61;58.25;102509.94;5035348;28;45346;-52
2022/01/30 08:50:08;;;;;;;;;4.67;2.33;;;;;9.66;58.20;102515.19;5036006;28;45447;-51
2022/01/30 08:52:34;;;;;;;;;6.00;3.00;;;;;9.65;57.81;102521.34;5036095;28;45513;-49
2022/01/30 08:55:00;;;;;;;;;4.67;4.00;;;;;9.62;57.75;102509.06;5035836;28;45349;-52
2022/01/30 08:57:26;;;;;;;;;3.00;3.00;;;;;9.65;57.51;102516.94;5035731;28;45590;-52
2022/01/30 08:59:51;;;;;;;;;4.67;3.33;;;;;9.65;57.25;102516.06;5035981;28;45376;-49
2022/01/30 09:02:19;;;;;;;;;6.33;6.33;;;;;9.65;57.41;102514.31;5035817;28;45425;-53
2022/01/30 09:04:44;;;;;;;;;3.33;3.33;;;;;9.65;57.15;102518.72;5051093;28;45772;-53
2022/01/30 09:07:09;;;;;;;;;4.67;2.67;;;;;9.62;56.89;102523.97;5035654;28;45491;-49
2022/01/30 09:09:35;;;;;;;;;2.67;2.67;;;;;9.60;56.91;102518.69;5035922;28;45443;-49
2022/01/30 09:12:02;;;;;;;;;3.67;2.67;;;;;9.57;56.55;102520.47;5035650;28;45546;-53
2022/01/30 09:14:28;;;;;;;;;3.00;3.00;;;;;9.64;56.64;102528.31;5035620;28;45567;-52
2022/01/30 09:16:54;;;;;;;;;4.00;3.67;;;;;9.66;56.54;102523.06;5035468;28;45391;-50
2022/01/30 09:19:20;;;;;;;;;3.00;3.00;;;;;9.64;56.01;102522.19;5035731;28;45491;-48
2022/01/30 09:21:46;;;;;;;;;2.67;2.00;;;;;9.67;56.16;102522.19;5035733;28;45332;-50
2022/01/30 09:24:12;;;;;;;;;2.00;2.00;;;;;9.68;56.42;102529.22;5035293;28;45470;-50
2022/01/30 09:26:37;;;;;;;;;3.33;2.33;;;;;9.65;55.82;102516.94;5035356;28;45445;-50
2022/01/30 09:29:03;;;;;;;;;3.33;3.00;;;;;9.70;55.40;102532.72;5035128;28;45461;-48
2022/01/30 09:31:28;;;;;;;;;5.67;3.00;;;;;9.70;55.55;102535.34;5035322;28;45335;-48
2022/01/30 09:33:53;;;;;;;;;3.00;3.00;;;;;9.59;55.88;102502.94;5035450;28;45493;-51
2022/01/30 09:36:19;;;;;;;;;7.33;3.67;;;;;9.81;55.29;102541.47;5035388;28;45481;-47
2022/01/30 09:38:44;;;;;;;;;6.33;3.00;;;;;9.82;55.04;102543.19;5035509;28;45493;-52
2022/01/30 09:41:11;;;;;;;;;4.00;2.00;;;;;9.82;55.32;102537.94;5035422;28;45493;-52
2022/01/30 09:43:36;;;;;;;;;3.00;3.00;;;;;9.77;54.91;102537.06;5035252;28;45525;-51
2022/01/30 09:46:03;;;;;;;;;4.00;4.00;;;;;9.80;55.54;102530.94;5035138;28;45530;-53
2022/01/30 09:48:35;;;;;;;;;3.33;3.33;;;;;9.82;54.71;102530.06;5035356;28;45449;-53
2022/01/30 09:51:03;;;;;;;;;4.00;2.33;;;;;9.93;54.94;102538.81;5033717;28;45377;-52
2022/01/30 09:53:28;;;;;;;;;3.33;3.00;;;;;9.93;55.15;102535.31;5034879;28;46090;-48
2022/01/30 09:55:54;;;;;;;;;3.67;3.67;;;;;9.94;54.07;102543.19;5034947;28;45387;-55
2022/01/30 09:58:19;;;;;;;;;7.33;3.00;;;;;9.92;55.00;102539.69;5037567;28;45360;-52
2022/01/30 10:00:45;;;;;;;;;3.67;2.67;;;;;9.96;55.00;102537.91;5038455;28;45360;-50
2022/01/30 10:03:10;;;;;;;;;2.00;2.00;;;;;9.94;54.41;102537.94;5038396;28;45410;-53
2022/01/30 10:05:37;;;;;;;;;4.00;4.00;;;;;9.99;55.19;102534.41;5038331;28;45498;-54
2022/01/30 10:08:04;;;;;;;;;4.00;3.00;;;;;10.00;54.79;102531.78;5038401;28;45529;-51
2022/01/30 10:10:30;;;;;;;;;4.00;4.00;;;;;10.03;54.34;102529.16;5038321;28;45561;-52
2022/01/30 10:13:12;;;;;;;;;3.00;3.00;;;;;10.06;54.44;102542.28;5038263;28;45950;-49
2022/01/30 10:16:02;;;;;;;;;3.00;3.00;;;;;10.02;54.69;102522.16;5038645;28;45526;-49
2022/01/30 10:18:32;;;;;;;;;3.67;3.67;;;;;10.07;54.60;102540.53;5038480;28;45379;-47
2022/01/30 10:20:57;;;;;;;;;6.00;4.00;;;;;10.02;54.27;102530.06;5038237;28;45621;-48
2022/01/30 10:23:34;;;;;;;;;8.00;6.00;;;;;10.04;53.84;102545.81;5038198;28;45650;-50
2022/01/30 10:26:01;;;;;;;;;6.33;3.33;;;;;9.92;53.97;102537.06;5038338;28;45553;-49
2022/01/30 10:28:28;;;;;;;;;6.00;6.00;;;;;9.93;53.94;102541.44;5038034;28;45403;-51
2022/01/30 10:31:00;;;;;;;;;11.67;7.67;;;;;9.91;53.92;102527.44;5038097;28;45569;-51
2022/01/30 10:33:45;;;;;;;;;7.00;7.00;;;;;10.01;53.95;102530.91;5037968;28;45443;-46
2022/01/30 10:36:13;;;;;;;;;7.33;5.00;;;;;10.05;54.46;102537.94;5037995;28;45380;-54
2022/01/30 10:38:47;;;;;;;;;8.00;3.33;;;;;10.10;54.47;102532.63;5038007;28;45372;-49
2022/01/30 10:41:21;;;;;;;;;4.00;4.00;;;;;10.11;54.06;102527.38;5038249;28;45321;-48
2022/01/30 10:44:02;;;;;;;;;4.00;4.00;;;;;10.14;53.80;102535.25;5037998;28;47159;-49
2022/01/30 10:46:32;;;;;;;;;6.00;3.67;;;;;10.05;53.02;102529.16;5037760;28;45458;-49
2022/01/30 10:49:00;;;;;;;;;5.33;5.33;;;;;9.98;53.53;102522.16;5037936;28;45297;-49
2022/01/30 10:51:31;;;;;;;;;4.67;2.67;;;;;10.06;53.26;102526.53;5037919;28;45551;-52
2022/01/30 10:53:58;;;;;;;;;5.67;4.00;;;;;10.10;53.65;102524.75;5037795;28;45476;-48
2022/01/30 10:56:27;;;;;;;;;8.00;6.33;;;;;10.18;54.36;102525.59;5037780;28;45445;-52
2022/01/30 10:59:11;;;;;;;;;7.00;4.33;;;;;10.14;53.33;102522.13;5037880;28;45472;-50
2022/01/30 11:01:47;;;;;;;;;6.67;4.67;;;;;10.14;54.04;102523.88;5037551;28;45474;-48
2022/01/30 11:04:24;;;;;;;;;4.67;3.00;;;;;10.15;53.87;102517.72;5037571;28;45559;-49
2022/01/30 11:06:50;;;;;;;;;7.33;6.33;;;;;10.20;53.18;102525.59;5037564;28;45441;-50
2022/01/30 11:09:21;;;;;;;;;7.00;7.00;;;;;10.21;53.57;102527.34;5036436;28;45434;-49
2022/01/30 11:11:54;;;;;;;;;7.00;5.67;;;;;10.18;53.13;102522.97;5037572;28;45568;-53
2022/01/30 11:14:23;;;;;;;;;6.00;4.00;;;;;10.18;53.06;102528.22;5035934;28;46544;-51
2022/01/30 11:16:58;;;;;;;;;6.33;3.67;;;;;10.16;52.50;102517.72;5037450;28;45422;-49
2022/01/30 11:19:25;;;;;;;;;5.00;5.00;;;;;10.21;52.81;102512.47;5037570;28;45438;-49
2022/01/30 11:21:58;;;;;;;;;9.00;7.00;;;;;10.24;53.40;102509.81;5037397;28;45666;-51
2022/01/30 11:24:25;;;;;;;;;5.33;5.33;;;;;10.26;53.42;102513.34;5037090;28;46328;-50
2022/01/30 11:26:52;;;;;;;;;8.33;4.00;;;;;10.26;52.73;102509.81;5052940;28;45348;-49
2022/01/30 11:29:21;;;;;;;;;5.33;5.33;;;;;10.22;52.49;102498.44;5037247;28;45421;-51
2022/01/30 11:31:47;;;;;;;;;6.67;6.67;;;;;10.26;53.34;102500.19;5037259;28;45597;-47
2022/01/30 11:34:13;;;;;;;;;3.33;3.33;;;;;10.31;52.79;102501.06;5037034;28;45481;-50
2022/01/30 11:36:42;;;;;;;;;8.33;5.67;;;;;10.36;51.74;102493.16;5036833;28;45449;-48
2022/01/30 11:39:08;;;;;;;;;7.00;7.00;;;;;10.37;52.38;102481.78;5037162;28;45367;-50
2022/01/30 11:41:35;;;;;;;;;4.67;4.67;;;;;10.45;52.52;102486.97;5037290;28;45466;-49
2022/01/30 11:44:18;;;;;;;;;8.67;7.00;;;;;10.47;52.19;102486.09;5036719;28;45420;-49
2022/01/30 11:47:04;;;;;;;;;6.00;6.00;;;;;10.46;52.37;102479.09;5036701;28;45335;-52
2022/01/30 11:49:40;;;;;;;;;8.00;7.00;;;;;10.55;53.32;102480.78;5036759;28;45344;-51
2022/01/30 11:52:09;;;;;;;;;11.50;7.00;;;;;10.60;52.31;102476.38;5036745;28;45539;-49
2022/01/30 11:54:45;;;;;;;;;6.67;6.67;;;;;10.54;52.76;102464.13;5036525;28;46011;-50
2022/01/30 11:57:19;;;;;;;;;7.00;7.00;;;;;10.48;50.90;102471.19;5036848;28;45562;-52
2022/01/30 11:59:46;;;;;;;;;9.67;9.67;;;;;10.37;51.82;102464.22;5037011;28;45403;-50
2022/01/30 12:02:25;;;;;;;;;9.00;7.33;;;;;10.45;51.63;102464.19;5036757;28;45366;-53
2022/01/30 12:05:01;;;;;;;;;9.00;8.33;;;;;10.46;52.06;102458.03;5036831;28;45527;-52
2022/01/30 12:07:38;;;;;;;;;9.33;7.33;;;;;10.51;51.70;102450.13;5036524;28;45478;-51
2022/01/30 12:10:15;;;;;;;;;9.00;9.00;;;;;10.57;52.08;102455.34;5036748;28;45515;-51
2022/01/30 12:12:49;;;;;;;;;7.00;7.00;;;;;10.63;51.76;102452.69;5036451;28;45410;-50
2022/01/30 12:15:37;;;;;;;;;7.00;7.00;;;;;10.71;52.39;102456.13;5036510;28;46314;-52
2022/01/30 12:18:07;;;;;;;;;8.33;7.00;;;;;10.77;52.11;102466.66;5036365;28;45359;-48
2022/01/30 12:21:01;;;;;;;;;7.00;7.00;;;;;10.81;51.13;102449.94;5036378;28;45438;-51
2022/01/30 12:23:36;;;;;;;;;10.67;9.00;;;;;10.86;51.42;102443.78;5036494;28;45445;-48
2022/01/30 12:26:14;;;;;;;;;10.00;9.00;;;;;10.80;52.04;102432.41;5036081;28;47354;-53